sensor_id;sensor_type;location;lat;lon;timestamp;pressure;altitude;pressure_sealevel;temperature;humidity
27040;BME280;14589;51.578;7.306;2023-05-28T00:02:26;101493.31;;;12.47;75.28
27040;BME280;14589;51.578;7.306;2023-05-28T00:04:56;101502.50;;;12.46;76.14
27040;BME280;14589;51.578;7.306;2023-05-28T00:07:27;101496.59;;;12.41;75.79
27040;BME280;14589;51.578;7.306;2023-05-28T00:10:01;101497.44;;;12.41;76.09
27040;BME280;14589;51.578;7.306;2023-05-28T00:12:31;101499.63;;;12.38;75.63
27040;BME280;14589;51.578;7.306;2023-05-28T00:15:02;101503.63;;;12.34;75.81
27040;BME280;14589;51.578;7.306;2023-05-28T00:17:32;101496.47;;;12.33;77.10
27040;BME280;14589;51.578;7.306;2023-05-28T00:20:03;101499.59;;;12.28;77.00
27040;BME280;14589;51.578;7.306;2023-05-28T00:22:34;101494.72;;;12.22;77.24
27040;BME280;14589;51.578;7.306;2023-05-28T00:25:05;101496.69;;;12.10;77.66
27040;BME280;14589;51.578;7.306;2023-05-28T00:27:36;101493.53;;;12.05;78.13
27040;BME280;14589;51.578;7.306;2023-05-28T00:30:06;101496.56;;;12.02;78.40
27040;BME280;14589;51.578;7.306;2023-05-28T00:32:37;101492.53;;;11.97;78.81
27040;BME280;14589;51.578;7.306;2023-05-28T00:35:07;101476.06;;;11.98;78.57
27040;BME280;14589;51.578;7.306;2023-05-28T00:37:38;101477.91;;;11.98;78.47
27040;BME280;14589;51.578;7.306;2023-05-28T00:40:08;101483.78;;;11.93;78.35
27040;BME280;14589;51.578;7.306;2023-05-28T00:42:39;101485.75;;;11.91;78.48
27040;BME280;14589;51.578;7.306;2023-05-28T00:45:10;101489.78;;;11.87;78.76
27040;BME280;14589;51.578;7.306;2023-05-28T00:47:45;101483.78;;;11.84;78.13
27040;BME280;14589;51.578;7.306;2023-05-28T00:50:15;101491.75;;;11.75;79.54
27040;BME280;14589;51.578;7.306;2023-05-28T00:52:49;101497.44;;;11.72;78.63
27040;BME280;14589;51.578;7.306;2023-05-28T00:55:20;101491.53;;;11.67;78.53
27040;BME280;14589;51.578;7.306;2023-05-28T00:57:50;101479.97;;;11.65;78.65
27040;BME280;14589;51.578;7.306;2023-05-28T01:00:24;101492.94;;;11.62;79.57
27040;BME280;14589;51.578;7.306;2023-05-28T01:02:55;101499.78;;;11.56;79.29
27040;BME280;14589;51.578;7.306;2023-05-28T01:05:25;101488.47;;;11.51;79.71
27040;BME280;14589;51.578;7.306;2023-05-28T01:07:56;101488.28;;;11.43;79.18
27040;BME280;14589;51.578;7.306;2023-05-28T01:10:28;101494.00;;;11.40;79.75
27040;BME280;14589;51.578;7.306;2023-05-28T01:12:59;101489.56;;;11.39;79.94
27040;BME280;14589;51.578;7.306;2023-05-28T01:15:30;101478.94;;;11.36;79.24
27040;BME280;14589;51.578;7.306;2023-05-28T01:18:01;101488.50;;;11.30;79.58
27040;BME280;14589;51.578;7.306;2023-05-28T01:20:32;101488.78;;;11.27;79.79
27040;BME280;14589;51.578;7.306;2023-05-28T01:23:07;101496.19;;;11.25;79.97
27040;BME280;14589;51.578;7.306;2023-05-28T01:25:40;101493.75;;;11.22;80.22
27040;BME280;14589;51.578;7.306;2023-05-28T01:28:12;101498.59;;;11.19;80.41
27040;BME280;14589;51.578;7.306;2023-05-28T01:30:45;101490.56;;;11.17;80.73
27040;BME280;14589;51.578;7.306;2023-05-28T01:33:16;101480.53;;;11.08;80.90
27040;BME280;14589;51.578;7.306;2023-05-28T01:35:50;101472.50;;;11.07;81.04
27040;BME280;14589;51.578;7.306;2023-05-28T01:38:22;101469.59;;;10.99;81.15
27040;BME280;14589;51.578;7.306;2023-05-28T01:40:54;101473.31;;;10.98;81.64
27040;BME280;14589;51.578;7.306;2023-05-28T01:43:25;101474.56;;;10.93;81.36
27040;BME280;14589;51.578;7.306;2023-05-28T01:45:56;101465.72;;;10.91;81.51
27040;BME280;14589;51.578;7.306;2023-05-28T01:48:27;101480.41;;;10.89;82.13
27040;BME280;14589;51.578;7.306;2023-05-28T01:50:58;101476.94;;;10.87;81.76
27040;BME280;14589;51.578;7.306;2023-05-28T01:53:29;101478.34;;;10.81;81.60
27040;BME280;14589;51.578;7.306;2023-05-28T01:56:00;101482.78;;;10.82;81.67
27040;BME280;14589;51.578;7.306;2023-05-28T01:58:32;101471.59;;;10.76;81.66
27040;BME280;14589;51.578;7.306;2023-05-28T02:01:20;101469.28;;;10.71;81.44
27040;BME280;14589;51.578;7.306;2023-05-28T02:03:58;101475.69;;;10.70;81.59
27040;BME280;14589;51.578;7.306;2023-05-28T02:06:31;101471.53;;;10.66;81.70
27040;BME280;14589;51.578;7.306;2023-05-28T02:09:02;101477.19;;;10.63;81.90
27040;BME280;14589;51.578;7.306;2023-05-28T02:11:32;101477.59;;;10.59;81.92
27040;BME280;14589;51.578;7.306;2023-05-28T02:14:02;101457.00;;;10.56;82.24
27040;BME280;14589;51.578;7.306;2023-05-28T02:16:34;101471.59;;;10.55;82.07
27040;BME280;14589;51.578;7.306;2023-05-28T02:19:06;101470.97;;;10.51;82.42
27040;BME280;14589;51.578;7.306;2023-05-28T02:21:36;101466.94;;;10.46;82.35
27040;BME280;14589;51.578;7.306;2023-05-28T02:24:06;101472.63;;;10.43;82.17
27040;BME280;14589;51.578;7.306;2023-05-28T02:26:38;101475.72;;;10.38;82.24
27040;BME280;14589;51.578;7.306;2023-05-28T02:29:09;101467.72;;;10.37;82.76
27040;BME280;14589;51.578;7.306;2023-05-28T02:31:40;101462.78;;;10.31;82.58
27040;BME280;14589;51.578;7.306;2023-05-28T02:34:10;101463.06;;;10.28;82.96
27040;BME280;14589;51.578;7.306;2023-05-28T02:36:42;101469.34;;;10.28;83.01
27040;BME280;14589;51.578;7.306;2023-05-28T02:39:12;101467.75;;;10.26;82.87
27040;BME280;14589;51.578;7.306;2023-05-28T02:41:43;101467.41;;;10.19;82.76
27040;BME280;14589;51.578;7.306;2023-05-28T02:44:14;101470.00;;;10.21;83.09
27040;BME280;14589;51.578;7.306;2023-05-28T02:46:45;101480.09;;;10.19;82.92
27040;BME280;14589;51.578;7.306;2023-05-28T02:49:15;101483.66;;;10.19;83.25
27040;BME280;14589;51.578;7.306;2023-05-28T02:51:46;101469.59;;;10.14;83.01
27040;BME280;14589;51.578;7.306;2023-05-28T02:54:29;101471.25;;;10.05;83.11
27040;BME280;14589;51.578;7.306;2023-05-28T02:56:59;101465.84;;;9.94;84.33
27040;BME280;14589;51.578;7.306;2023-05-28T02:59:30;101468.31;;;9.97;84.46
27040;BME280;14589;51.578;7.306;2023-05-28T03:02:01;101463.38;;;9.91;84.37
27040;BME280;14589;51.578;7.306;2023-05-28T03:04:32;101467.09;;;9.90;85.12
27040;BME280;14589;51.578;7.306;2023-05-28T03:07:03;101486.91;;;9.91;84.68
27040;BME280;14589;51.578;7.306;2023-05-28T03:09:36;101478.31;;;9.86;84.76
27040;BME280;14589;51.578;7.306;2023-05-28T03:12:08;101484.59;;;9.86;84.87
27040;BME280;14589;51.578;7.306;2023-05-28T03:14:38;101482.75;;;9.87;85.07
27040;BME280;14589;51.578;7.306;2023-05-28T03:17:08;101496.88;;;9.90;84.76
27040;BME280;14589;51.578;7.306;2023-05-28T03:19:39;101492.56;;;9.88;84.72
27040;BME280;14589;51.578;7.306;2023-05-28T03:22:09;101494.44;;;9.87;84.44
27040;BME280;14589;51.578;7.306;2023-05-28T03:24:44;101490.63;;;9.79;84.48
27040;BME280;14589;51.578;7.306;2023-05-28T03:27:17;101492.72;;;9.75;84.56
27040;BME280;14589;51.578;7.306;2023-05-28T03:29:48;101484.72;;;9.73;85.41
27040;BME280;14589;51.578;7.306;2023-05-28T03:32:26;101480.66;;;9.68;85.21
27040;BME280;14589;51.578;7.306;2023-05-28T03:34:56;101475.59;;;9.63;85.45
27040;BME280;14589;51.578;7.306;2023-05-28T03:37:33;101479.81;;;9.56;86.33
27040;BME280;14589;51.578;7.306;2023-05-28T03:40:04;101475.13;;;9.58;86.59
27040;BME280;14589;51.578;7.306;2023-05-28T03:42:36;101473.16;;;9.60;86.40
27040;BME280;14589;51.578;7.306;2023-05-28T03:45:07;101477.59;;;9.61;86.67
27040;BME280;14589;51.578;7.306;2023-05-28T03:47:38;101479.81;;;9.56;85.93
27040;BME280;14589;51.578;7.306;2023-05-28T03:50:10;101476.38;;;9.54;86.20
27040;BME280;14589;51.578;7.306;2023-05-28T03:52:40;101470.09;;;9.54;86.84
27040;BME280;14589;51.578;7.306;2023-05-28T03:55:10;101479.31;;;9.51;86.67
27040;BME280;14589;51.578;7.306;2023-05-28T03:57:43;101481.66;;;9.56;87.12
27040;BME280;14589;51.578;7.306;2023-05-28T04:00:14;101470.09;;;9.54;86.68
27040;BME280;14589;51.578;7.306;2023-05-28T04:02:47;101478.56;;;9.60;86.60
27040;BME280;14589;51.578;7.306;2023-05-28T04:05:19;101481.41;;;9.59;86.88
27040;BME280;14589;51.578;7.306;2023-05-28T04:07:49;101470.47;;;9.60;86.15
27040;BME280;14589;51.578;7.306;2023-05-28T04:10:19;101464.19;;;9.60;86.35
27040;BME280;14589;51.578;7.306;2023-05-28T04:12:50;101478.97;;;9.56;86.80
27040;BME280;14589;51.578;7.306;2023-05-28T04:15:20;101472.69;;;9.55;87.61
27040;BME280;14589;51.578;7.306;2023-05-28T04:17:51;101484.09;;;9.59;87.89
27040;BME280;14589;51.578;7.306;2023-05-28T04:20:21;101489.28;;;9.62;87.25
27040;BME280;14589;51.578;7.306;2023-05-28T04:22:52;101482.63;;;9.66;87.58
27040;BME280;14589;51.578;7.306;2023-05-28T04:25:22;101484.09;;;9.70;87.36
27040;BME280;14589;51.578;7.306;2023-05-28T04:27:55;101484.97;;;9.70;87.30
27040;BME280;14589;51.578;7.306;2023-05-28T04:30:27;101487.16;;;9.77;87.08
27040;BME280;14589;51.578;7.306;2023-05-28T04:32:57;101497.16;;;9.87;87.36
27040;BME280;14589;51.578;7.306;2023-05-28T04:35:29;101505.25;;;9.98;87.44
27040;BME280;14589;51.578;7.306;2023-05-28T04:37:59;101499.06;;;10.07;86.88
27040;BME280;14589;51.578;7.306;2023-05-28T04:40:30;101498.34;;;10.17;86.45
27040;BME280;14589;51.578;7.306;2023-05-28T04:43:01;101501.03;;;10.28;86.30
27040;BME280;14589;51.578;7.306;2023-05-28T04:45:32;101509.72;;;10.42;85.83
27040;BME280;14589;51.578;7.306;2023-05-28T04:48:03;101511.25;;;10.56;85.70
27040;BME280;14589;51.578;7.306;2023-05-28T04:50:35;101504.78;;;10.68;85.72
27040;BME280;14589;51.578;7.306;2023-05-28T04:53:06;101513.47;;;10.83;85.40
27040;BME280;14589;51.578;7.306;2023-05-28T04:55:37;101513.28;;;10.95;85.27
27040;BME280;14589;51.578;7.306;2023-05-28T04:58:11;101513.97;;;11.09;85.14
27040;BME280;14589;51.578;7.306;2023-05-28T05:00:42;101502.03;;;11.21;85.08
27040;BME280;14589;51.578;7.306;2023-05-28T05:03:12;101492.53;;;11.36;84.44
27040;BME280;14589;51.578;7.306;2023-05-28T05:05:44;101500.44;;;11.49;84.26
27040;BME280;14589;51.578;7.306;2023-05-28T05:08:15;101503.22;;;11.58;83.42
27040;BME280;14589;51.578;7.306;2023-05-28T05:10:47;101502.59;;;11.75;83.01
27040;BME280;14589;51.578;7.306;2023-05-28T05:13:19;101507.94;;;11.87;82.50
27040;BME280;14589;51.578;7.306;2023-05-28T05:15:50;101506.13;;;11.97;82.54
27040;BME280;14589;51.578;7.306;2023-05-28T05:18:21;101513.00;;;12.10;82.31
27040;BME280;14589;51.578;7.306;2023-05-28T05:20:51;101510.88;;;12.24;82.05
27040;BME280;14589;51.578;7.306;2023-05-28T05:23:21;101517.53;;;12.40;81.79
27040;BME280;14589;51.578;7.306;2023-05-28T05:25:53;101509.34;;;12.50;80.78
27040;BME280;14589;51.578;7.306;2023-05-28T05:28:23;101519.25;;;12.61;80.52
27040;BME280;14589;51.578;7.306;2023-05-28T05:30:53;101518.94;;;12.73;80.26
27040;BME280;14589;51.578;7.306;2023-05-28T05:33:24;101512.34;;;12.85;79.43
27040;BME280;14589;51.578;7.306;2023-05-28T05:36:13;101517.22;;;12.91;77.92
27040;BME280;14589;51.578;7.306;2023-05-28T05:38:50;101524.81;;;13.07;77.90
27040;BME280;14589;51.578;7.306;2023-05-28T05:41:41;101525.69;;;13.17;77.29
27040;BME280;14589;51.578;7.306;2023-05-28T05:44:23;101523.38;;;13.22;76.51
27040;BME280;14589;51.578;7.306;2023-05-28T05:46:54;101521.19;;;13.35;76.22
27040;BME280;14589;51.578;7.306;2023-05-28T05:49:24;101527.91;;;13.51;75.12
27040;BME280;14589;51.578;7.306;2023-05-28T05:51:56;101527.13;;;13.68;74.03
27040;BME280;14589;51.578;7.306;2023-05-28T05:54:27;101525.84;;;13.99;74.50
27040;BME280;14589;51.578;7.306;2023-05-28T05:56:57;101532.31;;;14.26;72.26
27040;BME280;14589;51.578;7.306;2023-05-28T05:59:28;101531.69;;;14.32;71.40
27040;BME280;14589;51.578;7.306;2023-05-28T06:01:59;101525.72;;;14.46;70.74
27040;BME280;14589;51.578;7.306;2023-05-28T06:04:31;101532.03;;;14.64;70.41
27040;BME280;14589;51.578;7.306;2023-05-28T06:07:26;101524.31;;;14.77;69.32
27040;BME280;14589;51.578;7.306;2023-05-28T06:10:15;101518.38;;;14.82;68.17
27040;BME280;14589;51.578;7.306;2023-05-28T06:12:47;101507.53;;;14.90;69.24
27040;BME280;14589;51.578;7.306;2023-05-28T06:15:17;101515.59;;;14.91;69.12
27040;BME280;14589;51.578;7.306;2023-05-28T06:17:48;101516.81;;;14.97;69.22
27040;BME280;14589;51.578;7.306;2023-05-28T06:20:19;101520.41;;;14.97;68.39
27040;BME280;14589;51.578;7.306;2023-05-28T06:22:50;101523.13;;;15.15;68.07
27040;BME280;14589;51.578;7.306;2023-05-28T06:25:21;101516.16;;;15.21;67.48
27040;BME280;14589;51.578;7.306;2023-05-28T06:27:53;101506.75;;;15.41;67.40
27040;BME280;14589;51.578;7.306;2023-05-28T06:30:24;101504.47;;;15.54;66.53
27040;BME280;14589;51.578;7.306;2023-05-28T06:32:55;101510.69;;;15.47;64.69
27040;BME280;14589;51.578;7.306;2023-05-28T06:35:25;101518.56;;;15.50;63.77
27040;BME280;14589;51.578;7.306;2023-05-28T06:37:56;101522.72;;;15.80;65.09
27040;BME280;14589;51.578;7.306;2023-05-28T06:40:26;101534.78;;;16.03;64.84
27040;BME280;14589;51.578;7.306;2023-05-28T06:42:57;101519.09;;;16.13;64.12
27040;BME280;14589;51.578;7.306;2023-05-28T06:45:48;101527.53;;;16.28;63.11
27040;BME280;14589;51.578;7.306;2023-05-28T06:48:18;101519.16;;;16.29;61.86
27040;BME280;14589;51.578;7.306;2023-05-28T06:50:49;101517.97;;;16.48;61.66
27040;BME280;14589;51.578;7.306;2023-05-28T06:53:20;101523.66;;;16.54;60.39
27040;BME280;14589;51.578;7.306;2023-05-28T06:55:50;101525.25;;;16.73;61.75
27040;BME280;14589;51.578;7.306;2023-05-28T06:58:39;101534.38;;;16.90;58.25
27040;BME280;14589;51.578;7.306;2023-05-28T07:01:10;101518.44;;;17.02;57.58
27040;BME280;14589;51.578;7.306;2023-05-28T07:03:59;101516.53;;;17.26;58.85
27040;BME280;14589;51.578;7.306;2023-05-28T07:06:36;101532.97;;;17.43;58.00
27040;BME280;14589;51.578;7.306;2023-05-28T07:09:07;101526.59;;;17.58;56.99
27040;BME280;14589;51.578;7.306;2023-05-28T07:11:38;101534.44;;;17.86;56.52
27040;BME280;14589;51.578;7.306;2023-05-28T07:14:08;101537.16;;;17.94;55.78
27040;BME280;14589;51.578;7.306;2023-05-28T07:16:39;101537.22;;;18.16;55.26
27040;BME280;14589;51.578;7.306;2023-05-28T07:19:11;101528.66;;;18.19;53.61
27040;BME280;14589;51.578;7.306;2023-05-28T07:21:41;101530.75;;;18.40;53.49
27040;BME280;14589;51.578;7.306;2023-05-28T07:24:13;101538.75;;;18.58;52.33
27040;BME280;14589;51.578;7.306;2023-05-28T07:26:44;101544.19;;;18.66;52.48
27040;BME280;14589;51.578;7.306;2023-05-28T07:29:15;101541.56;;;18.95;51.27
27040;BME280;14589;51.578;7.306;2023-05-28T07:31:48;101544.88;;;19.14;51.72
27040;BME280;14589;51.578;7.306;2023-05-28T07:34:21;101542.16;;;19.28;50.13
27040;BME280;14589;51.578;7.306;2023-05-28T07:36:52;101537.94;;;19.40;48.37
27040;BME280;14589;51.578;7.306;2023-05-28T07:39:22;101545.69;;;19.60;49.75
27040;BME280;14589;51.578;7.306;2023-05-28T07:41:54;101543.41;;;19.63;49.29
27040;BME280;14589;51.578;7.306;2023-05-28T07:44:28;101546.34;;;19.76;48.86
27040;BME280;14589;51.578;7.306;2023-05-28T07:46:59;101528.81;;;19.77;47.50
27040;BME280;14589;51.578;7.306;2023-05-28T07:49:48;101541.16;;;19.96;48.83
27040;BME280;14589;51.578;7.306;2023-05-28T07:52:23;101534.38;;;20.13;48.11
27040;BME280;14589;51.578;7.306;2023-05-28T07:54:57;101534.97;;;20.09;47.41
27040;BME280;14589;51.578;7.306;2023-05-28T07:57:29;101536.78;;;20.16;46.66
27040;BME280;14589;51.578;7.306;2023-05-28T08:00:01;101546.16;;;20.22;45.96
27040;BME280;14589;51.578;7.306;2023-05-28T08:02:36;101535.72;;;20.32;45.89
27040;BME280;14589;51.578;7.306;2023-05-28T08:05:09;101536.25;;;20.57;45.35
27040;BME280;14589;51.578;7.306;2023-05-28T08:07:40;101536.78;;;20.88;44.21
27040;BME280;14589;51.578;7.306;2023-05-28T08:10:11;101540.75;;;21.00;42.57
27040;BME280;14589;51.578;7.306;2023-05-28T08:12:42;101534.91;;;20.89;42.50
27040;BME280;14589;51.578;7.306;2023-05-28T08:15:13;101532.25;;;21.17;42.33
27040;BME280;14589;51.578;7.306;2023-05-28T08:17:43;101520.25;;;21.31;40.96
27040;BME280;14589;51.578;7.306;2023-05-28T08:20:18;101521.34;;;21.36;42.01
27040;BME280;14589;51.578;7.306;2023-05-28T08:23:13;101508.22;;;21.38;41.63
27040;BME280;14589;51.578;7.306;2023-05-28T08:25:43;101522.22;;;21.65;41.48
27040;BME280;14589;51.578;7.306;2023-05-28T08:28:23;101511.41;;;22.04;40.88
27040;BME280;14589;51.578;7.306;2023-05-28T08:30:54;101514.94;;;22.26;39.93
27040;BME280;14589;51.578;7.306;2023-05-28T08:33:38;101509.84;;;22.30;40.15
27040;BME280;14589;51.578;7.306;2023-05-28T08:36:10;101509.84;;;22.30;38.69
27040;BME280;14589;51.578;7.306;2023-05-28T08:38:40;101513.53;;;22.50;38.46
27040;BME280;14589;51.578;7.306;2023-05-28T08:41:11;101508.13;;;22.29;38.10
27040;BME280;14589;51.578;7.306;2023-05-28T08:43:42;101505.06;;;22.58;37.76
27040;BME280;14589;51.578;7.306;2023-05-28T08:46:14;101498.75;;;22.97;37.91
27040;BME280;14589;51.578;7.306;2023-05-28T08:49:08;101490.91;;;23.14;36.13
27040;BME280;14589;51.578;7.306;2023-05-28T08:51:39;101495.16;;;23.23;36.96
27040;BME280;14589;51.578;7.306;2023-05-28T08:54:12;101490.25;;;23.58;36.15
27040;BME280;14589;51.578;7.306;2023-05-28T08:56:44;101487.44;;;23.84;35.81
27040;BME280;14589;51.578;7.306;2023-05-28T08:59:14;101488.75;;;23.42;35.38
27040;BME280;14589;51.578;7.306;2023-05-28T09:01:47;101481.94;;;23.58;36.85
27040;BME280;14589;51.578;7.306;2023-05-28T09:04:23;101479.75;;;23.86;35.34
27040;BME280;14589;51.578;7.306;2023-05-28T09:06:54;101485.59;;;24.29;34.68
27040;BME280;14589;51.578;7.306;2023-05-28T09:09:47;101474.50;;;24.29;34.09
27040;BME280;14589;51.578;7.306;2023-05-28T09:12:22;101465.81;;;24.57;33.77
27040;BME280;14589;51.578;7.306;2023-05-28T09:14:56;101463.00;;;24.64;33.34
27040;BME280;14589;51.578;7.306;2023-05-28T09:17:35;101462.34;;;25.00;32.98
27040;BME280;14589;51.578;7.306;2023-05-28T09:20:10;101466.66;;;25.20;33.53
27040;BME280;14589;51.578;7.306;2023-05-28T09:22:43;101460.09;;;24.83;32.26
27040;BME280;14589;51.578;7.306;2023-05-28T09:25:34;101466.13;;;24.74;32.51
27040;BME280;14589;51.578;7.306;2023-05-28T09:28:17;101472.88;;;25.16;31.15
27040;BME280;14589;51.578;7.306;2023-05-28T09:30:48;101462.09;;;25.26;31.24
27040;BME280;14589;51.578;7.306;2023-05-28T09:33:19;101459.22;;;25.14;31.03
27040;BME280;14589;51.578;7.306;2023-05-28T09:36:00;101470.72;;;25.43;31.42
27040;BME280;14589;51.578;7.306;2023-05-28T09:38:38;101462.53;;;25.29;31.38
27040;BME280;14589;51.578;7.306;2023-05-28T09:41:26;101461.97;;;25.39;30.78
27040;BME280;14589;51.578;7.306;2023-05-28T09:44:03;101453.88;;;25.37;31.34
27040;BME280;14589;51.578;7.306;2023-05-28T09:46:35;101449.00;;;25.76;30.67
27040;BME280;14589;51.578;7.306;2023-05-28T09:49:06;101463.84;;;26.06;30.13
27040;BME280;14589;51.578;7.306;2023-05-28T09:51:37;101460.91;;;25.65;29.87
27040;BME280;14589;51.578;7.306;2023-05-28T09:54:09;101448.41;;;26.10;29.84
27040;BME280;14589;51.578;7.306;2023-05-28T09:56:41;101451.19;;;26.10;31.28
27040;BME280;14589;51.578;7.306;2023-05-28T09:59:12;101459.03;;;26.32;29.37
27040;BME280;14589;51.578;7.306;2023-05-28T10:04:35;101446.75;;;26.39;29.01
27040;BME280;14589;51.578;7.306;2023-05-28T10:07:09;101447.59;;;26.40;28.67
27040;BME280;14589;51.578;7.306;2023-05-28T10:09:41;101458.19;;;26.61;29.18
27040;BME280;14589;51.578;7.306;2023-05-28T10:12:17;101452.41;;;25.96;29.31
27040;BME280;14589;51.578;7.306;2023-05-28T10:14:51;101446.19;;;26.61;28.88
27040;BME280;14589;51.578;7.306;2023-05-28T10:17:22;101442.47;;;26.96;28.78
27040;BME280;14589;51.578;7.306;2023-05-28T10:19:52;101452.91;;;27.24;28.30
27040;BME280;14589;51.578;7.306;2023-05-28T10:22:23;101450.25;;;26.76;28.27
27040;BME280;14589;51.578;7.306;2023-05-28T10:24:53;101458.50;;;26.83;28.60
27040;BME280;14589;51.578;7.306;2023-05-28T10:27:31;101444.66;;;26.65;28.60
27040;BME280;14589;51.578;7.306;2023-05-28T10:30:06;101463.44;;;26.39;28.66
27040;BME280;14589;51.578;7.306;2023-05-28T10:32:40;101448.56;;;26.75;28.06
27040;BME280;14589;51.578;7.306;2023-05-28T10:35:11;101452.34;;;26.51;28.96
27040;BME280;14589;51.578;7.306;2023-05-28T10:37:42;101452.78;;;27.08;28.26
27040;BME280;14589;51.578;7.306;2023-05-28T10:40:22;101450.22;;;27.06;27.76
27040;BME280;14589;51.578;7.306;2023-05-28T10:42:53;101455.13;;;27.69;27.89
27040;BME280;14589;51.578;7.306;2023-05-28T10:45:34;101444.72;;;27.64;27.18
27040;BME280;14589;51.578;7.306;2023-05-28T10:48:05;101443.56;;;27.89;26.55
27040;BME280;14589;51.578;7.306;2023-05-28T10:50:55;101438.69;;;28.64;26.41
27040;BME280;14589;51.578;7.306;2023-05-28T10:53:27;101438.75;;;28.81;26.70
27040;BME280;14589;51.578;7.306;2023-05-28T10:55:57;101446.47;;;28.34;26.11
27040;BME280;14589;51.578;7.306;2023-05-28T10:58:36;101444.94;;;28.26;25.86
27040;BME280;14589;51.578;7.306;2023-05-28T11:03:44;101432.22;;;28.47;24.66
27040;BME280;14589;51.578;7.306;2023-05-28T11:06:16;101439.94;;;29.02;24.43
27040;BME280;14589;51.578;7.306;2023-05-28T11:08:48;101432.69;;;28.55;24.84
27040;BME280;14589;51.578;7.306;2023-05-28T11:11:18;101430.09;;;28.82;24.17
27040;BME280;14589;51.578;7.306;2023-05-28T11:13:49;101437.16;;;28.85;24.58
27040;BME280;14589;51.578;7.306;2023-05-28T11:16:19;101437.75;;;29.54;24.25
27040;BME280;14589;51.578;7.306;2023-05-28T11:19:06;101434.94;;;29.54;24.14
27040;BME280;14589;51.578;7.306;2023-05-28T11:21:50;101429.22;;;29.44;24.00
27040;BME280;14589;51.578;7.306;2023-05-28T11:24:21;101432.50;;;29.79;23.42
27040;BME280;14589;51.578;7.306;2023-05-28T11:26:52;101426.31;;;29.55;23.95
27040;BME280;14589;51.578;7.306;2023-05-28T11:29:24;101445.63;;;29.40;24.16
27040;BME280;14589;51.578;7.306;2023-05-28T11:31:55;101429.72;;;29.79;23.38
27040;BME280;14589;51.578;7.306;2023-05-28T11:34:25;101418.19;;;29.92;24.09
27040;BME280;14589;51.578;7.306;2023-05-28T11:36:56;101427.28;;;30.31;23.22
27040;BME280;14589;51.578;7.306;2023-05-28T11:39:26;101432.16;;;30.14;23.12
27040;BME280;14589;51.578;7.306;2023-05-28T11:41:57;101440.19;;;29.67;23.19
27040;BME280;14589;51.578;7.306;2023-05-28T11:44:27;101434.94;;;29.54;23.67
27040;BME280;14589;51.578;7.306;2023-05-28T11:46:58;101431.31;;;29.03;24.23
27040;BME280;14589;51.578;7.306;2023-05-28T11:49:28;101428.50;;;30.13;23.26
27040;BME280;14589;51.578;7.306;2023-05-28T11:51:58;101437.69;;;30.84;23.21
27040;BME280;14589;51.578;7.306;2023-05-28T11:54:29;101437.09;;;30.82;21.67
27040;BME280;14589;51.578;7.306;2023-05-28T11:57:02;101429.53;;;30.07;22.09
27040;BME280;14589;51.578;7.306;2023-05-28T11:59:33;101428.66;;;30.50;21.76
27040;BME280;14589;51.578;7.306;2023-05-28T12:02:10;101428.13;;;30.80;21.88
27040;BME280;14589;51.578;7.306;2023-05-28T12:04:57;101415.53;;;29.86;22.70
27040;BME280;14589;51.578;7.306;2023-05-28T12:07:29;101429.81;;;31.08;22.27
27040;BME280;14589;51.578;7.306;2023-05-28T12:10:08;101431.06;;;29.93;23.28
27040;BME280;14589;51.578;7.306;2023-05-28T12:12:43;101430.69;;;29.51;23.58
27040;BME280;14589;51.578;7.306;2023-05-28T12:15:14;101425.13;;;30.11;23.00
27040;BME280;14589;51.578;7.306;2023-05-28T12:17:45;101429.34;;;29.54;22.89
27040;BME280;14589;51.578;7.306;2023-05-28T12:25:45;101416.53;;;29.58;22.63
27040;BME280;14589;51.578;7.306;2023-05-28T12:28:18;101415.97;;;29.39;22.36
27040;BME280;14589;51.578;7.306;2023-05-28T12:30:51;101414.16;;;29.66;21.58
27040;BME280;14589;51.578;7.306;2023-05-28T12:33:23;101419.56;;;29.73;21.82
27040;BME280;14589;51.578;7.306;2023-05-28T12:35:53;101412.72;;;29.64;22.21
27040;BME280;14589;51.578;7.306;2023-05-28T12:38:23;101405.75;;;30.53;21.80
27040;BME280;14589;51.578;7.306;2023-05-28T12:40:54;101418.22;;;30.46;22.05
27040;BME280;14589;51.578;7.306;2023-05-28T12:43:24;101410.56;;;31.59;21.66
27040;BME280;14589;51.578;7.306;2023-05-28T12:45:55;101397.28;;;31.49;20.77
27040;BME280;14589;51.578;7.306;2023-05-28T12:48:25;101397.25;;;30.75;22.15
27040;BME280;14589;51.578;7.306;2023-05-28T12:50:55;101404.16;;;30.94;21.45
27040;BME280;14589;51.578;7.306;2023-05-28T12:53:26;101405.44;;;30.82;21.75
27040;BME280;14589;51.578;7.306;2023-05-28T12:55:56;101401.69;;;31.35;21.04
27040;BME280;14589;51.578;7.306;2023-05-28T12:58:26;101405.47;;;31.14;21.60
27040;BME280;14589;51.578;7.306;2023-05-28T13:00:57;101388.88;;;31.49;21.67
27040;BME280;14589;51.578;7.306;2023-05-28T13:03:28;101405.16;;;30.51;21.52
27040;BME280;14589;51.578;7.306;2023-05-28T13:05:58;101389.94;;;30.42;21.48
27040;BME280;14589;51.578;7.306;2023-05-28T13:08:29;101397.84;;;30.77;20.96
27040;BME280;14589;51.578;7.306;2023-05-28T13:10:59;101393.84;;;31.37;20.79
27040;BME280;14589;51.578;7.306;2023-05-28T13:13:29;101393.56;;;31.81;19.70
27040;BME280;14589;51.578;7.306;2023-05-28T13:16:00;101392.41;;;31.71;19.49
27040;BME280;14589;51.578;7.306;2023-05-28T13:18:31;101386.09;;;32.06;19.25
27040;BME280;14589;51.578;7.306;2023-05-28T13:21:01;101383.91;;;31.61;19.27
27040;BME280;14589;51.578;7.306;2023-05-28T13:23:32;101381.31;;;32.12;19.53
27040;BME280;14589;51.578;7.306;2023-05-28T13:26:02;101378.13;;;32.76;19.10
27040;BME280;14589;51.578;7.306;2023-05-28T13:28:32;101371.38;;;32.92;19.48
27040;BME280;14589;51.578;7.306;2023-05-28T13:31:03;101379.78;;;33.02;19.68